Pedernales — WDG6856 — position and weather

sailwx.info

Track history (hours):
 
Tides and Currents Weather Stations Pressure Air Temp Water Temp Dewpoint Dewpoint Depression Visibility Wind Speed Wind Dir Waves Ship Positions

Pedernales

Owner: Higman Barge Lines, Inc., Orange, TX. More information available from US FCC via Universal Licensing System and Coast Guard Vessel Documentation Center.

Last reported at 2018-May-20 10:55 UTC. Time now 2018-May-24 08:01 UTC.
Position N 31°53' W 091°13'.

Length 207 m; draft 2.7 m.

Type: . MMSI: 367561410.

Date/timePositionNaut miles runAvg speedWind from/ knotsBaromVisibWave heightAir tempDewpointWater temp
2018-May-20 10:55N 31°53' W 091°13'511.0
2018-May-20 10:27N 31°58' W 091°11'510.2
2018-May-20 10:00N 31°59' W 091°06'510.4
2018-May-20 09:30N 32°04' W 091°04'3 6.2
2018-May-20 08:58N 32°08' W 091°04'4 8.0
2018-May-20 08:30N 32°09' W 091°00'611.3
2018-May-20 08:00N 32°14' W 090°59'510.6
2018-May-20 07:30N 32°18' W 090°55'3 5.9
2018-May-20 07:01N 32°21' W 090°57'3 7.0
2018-May-20 06:31N 32°23' W 090°60'5 9.5
2018-May-20 06:01N 32°26' W 091°04'5 9.8
2018-May-20 05:30N 32°31' W 091°07'510.2
2018-May-20 05:00N 32°36' W 091°08'5 9.0
2018-May-20 04:30N 32°40' W 091°07'  
2018-May-15 23:06N 32°46' W 091°09'1 5.0
2018-May-15 22:56N 32°45' W 091°09'7 2.8
2018-May-15 20:30N 32°38' W 091°09'3 5.4
2018-May-15 20:00N 32°36' W 091°08'3 5.1
2018-May-15 19:30N 32°33' W 091°06'3 5.1
2018-May-15 19:00N 32°31' W 091°07'3 5.2
2018-May-15 18:30N 32°28' W 091°06'3 5.3
2018-May-15 18:00N 32°27' W 091°04'3 5.4
2018-May-15 17:30N 32°26' W 091°01'2 4.6
2018-May-15 17:01N 32°24' W 090°60'2 4.8
2018-May-15 16:30N 32°21' W 090°60'3 5.3
2018-May-15 15:59N 32°21' W 090°56'0 0.5
2018-May-15 15:30N 32°21' W 090°56'0 0.0
2018-May-15 15:00N 32°21' W 090°56'0 0.0
2018-May-15 14:30N 32°21' W 090°56'0 0.0
2018-May-15 14:00N 32°21' W 090°56'0 0.0
2018-May-15 13:30N 32°21' W 090°56'0 0.0
2018-May-15 13:00N 32°21' W 090°56'0 0.0
2018-May-15 12:30N 32°21' W 090°56'0 0.0
2018-May-15 12:00N 32°21' W 090°56'0 0.0
2018-May-15 11:31N 32°21' W 090°56'2 3.6
2018-May-15 11:00N 32°20' W 090°54'2 3.6
2018-May-15 10:29N 32°18' W 090°55'2 4.3
2018-May-15 10:00N 32°17' W 090°57'2 4.1
2018-May-15 09:30N 32°15' W 090°58'2 4.5
2018-May-15 09:00N 32°13' W 090°59'2 4.1
2018-May-15 08:30N 32°11' W 090°60'2 4.5
2018-May-15 08:01N 32°09' W 091°00'2 4.9
2018-May-15 07:30N 32°07' W 091°02'2 3.5
2018-May-15 07:00N 32°08' W 091°04'1 2.6
2018-May-15 06:30N 32°08' W 091°05'2 3.5
2018-May-15 06:00N 32°06' W 091°06'3 6.0
2018-May-15 05:30N 32°04' W 091°04'3 5.2
2018-May-15 05:00N 32°02' W 091°04'3 5.4
2018-May-15 04:29N 31°59' W 091°06'60 4.1
2018-May-14 13:56N 31°05' W 091°35'4 4.5
2018-May-14 13:04N 31°02' W 091°35'1 5.2
2018-May-14 12:58N 31°01' W 091°35'3 5.5
2018-May-14 12:28N 30°60' W 091°38'13 3.8
2018-May-14 08:59N 30°47' W 091°33'  
Track history (hours):
 
Tides and Currents Weather Stations Pressure Air Temp Water Temp Dewpoint Dewpoint Depression Visibility Wind Speed Wind Dir Waves Ship Positions

Pedernales

Owner: Higman Barge Lines, Inc., Orange, TX. More information available from US FCC via Universal Licensing System and Coast Guard Vessel Documentation Center.

Last reported at 2018-May-20 10:55 UTC. Time now 2018-May-24 08:01 UTC.
Position N 31°53' W 091°13'.

Length 207 m; draft 2.7 m.

Type: . MMSI: 367561410.

Date/timePositionNaut miles runAvg speedWind from/ knotsBaromVisibWave heightAir tempDewpointWater temp
2018-May-20 10:55N 31°53' W 091°13'511.0
2018-May-20 10:27N 31°58' W 091°11'510.2
2018-May-20 10:00N 31°59' W 091°06'510.4
2018-May-20 09:30N 32°04' W 091°04'3 6.2
2018-May-20 08:58N 32°08' W 091°04'4 8.0
2018-May-20 08:30N 32°09' W 091°00'611.3
2018-May-20 08:00N 32°14' W 090°59'510.6
2018-May-20 07:30N 32°18' W 090°55'3 5.9
2018-May-20 07:01N 32°21' W 090°57'3 7.0
2018-May-20 06:31N 32°23' W 090°60'5 9.5
2018-May-20 06:01N 32°26' W 091°04'5 9.8
2018-May-20 05:30N 32°31' W 091°07'510.2
2018-May-20 05:00N 32°36' W 091°08'5 9.0
2018-May-20 04:30N 32°40' W 091°07'  
2018-May-15 23:06N 32°46' W 091°09'1 5.0
2018-May-15 22:56N 32°45' W 091°09'7 2.8
2018-May-15 20:30N 32°38' W 091°09'3 5.4
2018-May-15 20:00N 32°36' W 091°08'3 5.1
2018-May-15 19:30N 32°33' W 091°06'3 5.1
2018-May-15 19:00N 32°31' W 091°07'3 5.2
2018-May-15 18:30N 32°28' W 091°06'3 5.3
2018-May-15 18:00N 32°27' W 091°04'3 5.4
2018-May-15 17:30N 32°26' W 091°01'2 4.6
2018-May-15 17:01N 32°24' W 090°60'2 4.8
2018-May-15 16:30N 32°21' W 090°60'3 5.3
2018-May-15 15:59N 32°21' W 090°56'0 0.5
2018-May-15 15:30N 32°21' W 090°56'0 0.0
2018-May-15 15:00N 32°21' W 090°56'0 0.0
2018-May-15 14:30N 32°21' W 090°56'0 0.0
2018-May-15 14:00N 32°21' W 090°56'0 0.0
2018-May-15 13:30N 32°21' W 090°56'0 0.0
2018-May-15 13:00N 32°21' W 090°56'0 0.0
2018-May-15 12:30N 32°21' W 090°56'0 0.0
2018-May-15 12:00N 32°21' W 090°56'0 0.0
2018-May-15 11:31N 32°21' W 090°56'2 3.6
2018-May-15 11:00N 32°20' W 090°54'2 3.6
2018-May-15 10:29N 32°18' W 090°55'2 4.3
2018-May-15 10:00N 32°17' W 090°57'2 4.1
2018-May-15 09:30N 32°15' W 090°58'2 4.5
2018-May-15 09:00N 32°13' W 090°59'2 4.1
2018-May-15 08:30N 32°11' W 090°60'2 4.5
2018-May-15 08:01N 32°09' W 091°00'2 4.9
2018-May-15 07:30N 32°07' W 091°02'2 3.5
2018-May-15 07:00N 32°08' W 091°04'1 2.6
2018-May-15 06:30N 32°08' W 091°05'2 3.5
2018-May-15 06:00N 32°06' W 091°06'3 6.0
2018-May-15 05:30N 32°04' W 091°04'3 5.2
2018-May-15 05:00N 32°02' W 091°04'3 5.4
2018-May-15 04:29N 31°59' W 091°06'60 4.1
2018-May-14 13:56N 31°05' W 091°35'4 4.5
2018-May-14 13:04N 31°02' W 091°35'1 5.2
2018-May-14 12:58N 31°01' W 091°35'3 5.5
2018-May-14 12:28N 30°60' W 091°38'13 3.8
2018-May-14 08:59N 30°47' W 091°33'  

Dump ship's entire track history